x

Montauk Point -23 Nm Ssw Of Montauk Point, Ny (44017) Wave Buoy

6:50am - Wed 10th Feb 2016 All times are EST. -5 hours from GMT.

  • Sig Wave height 3.9ft
  • Swell Direction
  • Peak Period 11s
  • Average Period 8s
  • Wind
    7mph, 9mph gusts
  • Sea Temp 46°f
  • Air Temp 35°f
  • Sea Pressure 1001.7mb
  • Montauk Point -23 Nm Ssw Of Montauk Point, Ny
  • Montauk Point -23 Nm Ssw Of Montauk Point, Ny

More Historic Weather Station data

Upgrade to MSW Pro to gain access to the past 30 days of data for over 8000 Wavebouys and Weather Stations around the globe.

Join Pro

Comparision Forecast

View Surf forecast
   
Wed 02/10 6:50am 4ft 11s 8s 7 9 mph 1001.7mb 46f 35f
5:50am 4.5ft 11s 8s 4 7 mph 1001.9mb 46f 35f
4:50am 5ft 13s 8s 4 7 mph 1001.7mb 46f 35f
3:50am 4.5ft 10s 7s 4 7 mph 1001.7mb 46f 35f
2:50am 4.5ft 12s 7s 4 7 mph 1001.9mb 46f 34f
1:50am 4.5ft 14s 7s 4 7 mph 1002mb 46f 35f
12:50am 5ft 14s 7s 4 7 mph 1002mb 46f 35f
Tue 02/09 11:50pm 5ft 14s 7s 4 7 mph 1002mb 46f 35f
10:50pm 5.5ft 14s 7s 7 9 mph 1002.2mb 46f 35f
9:50pm 6ft 12s 8s 4 9 mph 1002.5mb 46f 35f
8:50pm 5.5ft 11s 8s 7 9 mph 1002.5mb 46f 35f
7:50pm 5ft 11s 7s 4 9 mph 1002.7mb 46f 35f
6:50pm 6ft 13s 7s 4 9 mph 1002.4mb 46f 34f
5:50pm 6ft 14s 7s 9 13 mph 1001.7mb 46f 34f
4:50pm 6.5ft 11s 7s 9 11 mph 1001.3mb 46f 34f
3:50pm 5.5ft 14s 6s 13 18 mph 1000.9mb 46f 33f
2:50pm 6ft 11s 6s 16 20 mph 1000.1mb 46f 33f
1:50pm 6ft 10s 6s 16 20 mph 1000.3mb 46f 32f
12:50pm 7ft 11s 7s 18 20 mph 1000.6mb 46f 32f
11:50am 7.5ft 12s 7s 18 20 mph 1001.4mb 46f 32f
10:50am 7ft 14s 7s 18 22 mph 1002.3mb 46f 32f
9:50am 7.5ft 13s 7s 18 20 mph 1002.8mb 46f 33f
8:50am 8ft 12s 8s 16 20 mph 1003.5mb 46f 33f
7:50am 8ft 14s 8s 16 20 mph 1003.8mb 46f 32f
6:50am 8ft 13s 8s 11 18 mph 1004.8mb 46f 32f
5:50am 8.5ft 13s 8s 16 20 mph 1004.1mb 46f 31f
4:50am 8.5ft 11s 8s 22 29 mph 1003mb 46f 31f
3:50am 8.5ft 14s 8s 16 20 mph 1005.5mb 46f 30f
2:50am 9.5ft 14s 8s 16 20 mph 1005.8mb 46f 29f
1:50am 10ft 13s 8s 16 20 mph 1006.5mb 46f 29f
12:50am 10.5ft 14s 8s 13 20 mph 1007mb 46f 29f
Mon 02/08 11:50pm 10ft 13s 8s 16 20 mph 1007.4mb 46f 28f
10:50pm 10ft 13s 8s 18 20 mph 1007.7mb 47f 28f
9:50pm 10ft 11s 8s 18 25 mph 1007.6mb 47f 29f
8:50pm 11ft 12s 8s 20 27 mph 1007.5mb 46f 29f
7:50pm 12ft 12s 8s 22 29 mph 1007.4mb 46f 29f
6:50pm 12ft 12s 8s 27 31 mph 1006.1mb 46f 29f
5:50pm 12.5ft 11s 8s 27 34 mph 1005.7mb 46f 28f
4:50pm 14.5ft 13s 8s 27 34 mph 1005.2mb 46f 29f
3:50pm 13ft 11s 7s 27 34 mph 1004.6mb 46f 29f
2:50pm 14ft 11s 7s 29 36 mph 1003.3mb 46f 28f
1:50pm 14ft 11s 7s 31 38 mph 1002.5mb 46f 29f
12:50pm 15ft 11s 7s 36 45 mph 1002.5mb 46f 29f
11:50am 15ft 11s 8s 34 40 mph 1003.1mb 46f 30f
10:50am 15ft 11s 8s 31 38 mph 1003.8mb 46f 33f
9:50am 18ft 11s 8s 34 40 mph 1005.1mb 46f 34f
8:50am 15.5ft 10s 7s 36 43 mph 1004.8mb 46f 34f
7:50am 15ft 8s 7s 38 47 mph 1004mb 46f 35f
6:50am 16.5ft 10s 7s 40 49 mph 1004.2mb 46f 35f
5:50am 16ft 9s 7s 40 49 mph 1003.6mb 45f 36f
4:50am 15.5ft 8s 7s 43 51 mph 1003.1mb 45f 37f
3:50am 13ft 7s 6s 40 49 mph 1003.3mb 45f 39f
2:50am 11ft 7s 6s 40 49 mph 1004.5mb 45f 42f
1:50am 10ft 6s 5s 36 43 mph 1006.4mb 45f 42f
12:50am 8ft 6s 5s 34 43 mph 1008mb 45f 42f
Sun 02/07 11:50pm 7ft 6s 5s 31 38 mph 1010.2mb 46f 42f
10:50pm 5.5ft 5s 5s 29 34 mph 1012mb 46f 42f
9:50pm 4.5ft 5s 4s 25 31 mph 1012.9mb 45f 42f
8:50pm 4ft 10s 4s 25 29 mph 1014mb 45f 42f
7:50pm 3ft 10s 4s 22 27 mph 1015.6mb 45f 43f
6:50pm 2.5ft 10s 5s 18 22 mph 1016.2mb 45f 43f
5:50pm 2.5ft 10s 5s 16 18 mph 1016.9mb 45f 42f
4:50pm 2.5ft 10s 7s 13 16 mph 1017.1mb 45f 41f
3:50pm 2ft 9s 6s 11 13 mph 1017.5mb 45f 41f
2:50pm 2.5ft 10s 6s 4 7 mph 1018.5mb 45f 40f
1:50pm 2ft 10s 6s 2 4 mph 1019.6mb 45f 41f
12:50pm 2.5ft 11s 5s 2 4 mph 1021mb 45f 41f
11:50am 2.5ft 10s 5s 2
mph
1021.4mb 45f 40f
10:50am 2.5ft 10s 5s 7 9 mph 1020.6mb 45f 40f
9:50am 2.5ft 4s 4s 4 7 mph 1021.6mb 45f 40f
8:50am 2.5ft 5s 4s 7 9 mph 1022mb 46f 40f
7:50am 3ft 5s 4s 11 13 mph 1021.9mb 45f 41f
6:50am 3ft 4s 4s 13 16 mph 1022.5mb 45f 40f
5:50am 3ft 5s 4s 11 13 mph 1022mb 45f 40f
4:50am 3ft 5s 4s 13 16 mph 1022.2mb 45f 40f
3:50am 3ft 5s 4s 16 18 mph 1022.8mb 45f 41f
2:50am 3.5ft 5s 4s 13 18 mph 1023.6mb 45f 41f
1:50am 3.5ft 5s 4s 13 18 mph 1023.4mb 45f 40f
12:50am 3.5ft 5s 4s 16 18 mph 1024mb 45f 41f
Sat 02/06 11:50pm 3.5ft 5s 4s 18 22 mph 1024.6mb 45f 41f
10:50pm 3.5ft 4s 4s 18 20 mph 1025.2mb 45f 41f
9:50pm 3.5ft 4s 4s 16 20 mph 1025.4mb 45f 41f
8:50pm 3ft 4s 4s 18 20 mph 1025.5mb 46f 41f
7:50pm 3ft 4s 4s 16 20 mph 1025.7mb 46f 40f
6:50pm 3ft 4s 4s 16 20 mph 1025.8mb 47f 40f
5:50pm 3ft 9s 4s 18 20 mph 1025.8mb 47f 39f
4:50pm 3ft 9s 4s 18 22 mph 1026.1mb 47f 39f
3:50pm 3ft 9s 5s 16 20 mph 1026.3mb 47f 38f
2:50pm 2.5ft 9s 4s 16 20 mph 1026.8mb 46f 37f
1:50pm 2.5ft 9s 6s 13 18 mph 1027.3mb 46f 38f